Arcadia, WI

10:10 AM CDT en Julio 26, 2014 (GMT -0500)
Winona Municipal-Conrad (KONA) Alt 656 ft | 44.08 °N, 91.71 °W | Change Station

Current weather conditions updated 54 minutes ago

Overcast
Nublado
72 ° F
Sensación térmica 72 ° F
N
0
Viento Variable Viento desde Norte

Hoy se prevé un día Mucho más cálido que ayer. Cielo parcialmente cubierto, probabilidad de tormenta. tonight.

Hoy
Alta -- | Baja -- ° F
--% Posibilidad de precipitaciones
Ayer
Alta -- | Baja -- ° F
Precip. -- pul
5:47 AM 8:37 PM
Creciente menguante, 0% visible
Presión 29.84 pul
Visibilidad 7.0 Millas
Nubes Nublado 800 ft
Punto de rocío 68 ° F
Humedad 88%
Precipitaciones 0.00 pul
Espesor de la nieve No disponible.
UV 1 de una escala de 12
Polen 7.20 de una escala de 12
Calidad del aire No disponible.
Flu Activity No disponible.
METAR KONA 261416Z AUTO 00000KT 7SM OVC008 22/20 A2984 RMK AO2 LTG DSNT E

More Conditions Fewer Conditions

Presión 29.84 pul
Visibilidad 7.0 Millas
Nubes Nublado 800 ft
Punto de rocío 68 ° F
Humedad 88%
Precipitaciones 0.00 pul
Espesor de la nieve No disponible.
UV 1 de una escala de 12
Polen 7.20 de una escala de 12
Calidad del aire No disponible.
Flu Activity No disponible.
METAR KONA 261416Z AUTO 00000KT 7SM OVC008 22/20 A2984 RMK AO2 LTG DSNT E

More Conditions Fewer Conditions

10-Day Weather Forecast

Almanac

Astronomía

Jul. 26, 2014 Salida Puesta
Hora real 5:47 AM CDT 8:37 PM CDT
Crepúsculo civil 5:13 AM CDT 9:11 PM CDT
Crepúsculo náutico 4:30 AM CDT 9:53 PM CDT
Crepúsculo astronómico 3:39 AM CDT 10:43 PM CDT
Luna 5:42 AM CDT 8:08 PM CDT
Horas de luz 15h 58m
Horas de luz
14h 50m
Tomorrow will be 2m 8s shorter.
Creciente menguante, 0% of the Moon is Illuminated
Hoy
Creciente menguante
Jul 26
Nueva
Ago 3
Cuarto creciente
Ago 10
Luna llena
Ago 17
Cuarto menguante

Extremos de hoy

Máximos del estado Bajos del estado

Community

WunderPhotos

Upload Photos

1,737,608 ¡fotos cargadas!

Nearby

Grosos de nieve

Estación Profundido Altura
No tenemos constancia de nieve nueva.

Actividad de terremotos

Ciudad Distance Mag. Tiempo y dato
No hay informes recientes de la actividad sísmica.
Magnitud mínima muestra es 2,5.

Temperaturas de aguas costeras

Lugar Temperatura
Sin partes meteorológicos de las estaciones

Estaciones meteorológicas cercanas

Ubicación de la estación Temp. Índice de calor Punto de rocío Humedad Viento Precip. Alt Actualizado Tipo
Black Oak, Mindoro, WI 75.2 ° F 74 ° F 73 ° F 92% SO  a  2.2 mph 0.00 pul / hr 781 ft 10:07 AM CDT Rapid Fire
Holmen, Holmen, WI 71.6 ° F 70 ° F 67 ° F 85% SSO  a  3.0 mph 0.00 pul / hr 705 ft 10:10 AM CDT Rapid Fire
MNDOT Ridgeway I-90 Mile Post 261, Homer, MN 66 ° F - - 101% Sur  a  6 mph 0.00 pul / hr 1318 ft 6:40 AM CDT MADIS

Show More Stations Show Fewer Stations